sensor_id;sensor_type;location;lat;lon;timestamp;P1;durP1;ratioP1;P2;durP2;ratioP2
12005;SDS011;6062;47.294;12.182;2023-03-01T00:01:31;1.50;;;1.40;;
12005;SDS011;6062;47.294;12.182;2023-03-01T00:03:57;3.00;;;1.90;;
12005;SDS011;6062;47.294;12.182;2023-03-01T00:06:24;4.67;;;2.50;;
12005;SDS011;6062;47.294;12.182;2023-03-01T00:08:52;2.33;;;1.90;;
12005;SDS011;6062;47.294;12.182;2023-03-01T00:11:19;1.30;;;1.20;;
12005;SDS011;6062;47.294;12.182;2023-03-01T00:13:48;1.30;;;1.20;;
12005;SDS011;6062;47.294;12.182;2023-03-01T00:16:21;0.70;;;0.70;;
12005;SDS011;6062;47.294;12.182;2023-03-01T00:18:50;0.63;;;0.63;;
12005;SDS011;6062;47.294;12.182;2023-03-01T00:21:17;0.53;;;0.53;;
12005;SDS011;6062;47.294;12.182;2023-03-01T00:23:45;1.00;;;0.90;;
12005;SDS011;6062;47.294;12.182;2023-03-01T00:26:13;1.63;;;1.17;;
12005;SDS011;6062;47.294;12.182;2023-03-01T00:28:41;1.20;;;0.90;;
12005;SDS011;6062;47.294;12.182;2023-03-01T00:31:12;0.60;;;0.60;;
12005;SDS011;6062;47.294;12.182;2023-03-01T00:33:41;0.90;;;0.70;;
12005;SDS011;6062;47.294;12.182;2023-03-01T00:36:09;0.60;;;0.60;;
12005;SDS011;6062;47.294;12.182;2023-03-01T00:38:37;0.60;;;0.60;;
12005;SDS011;6062;47.294;12.182;2023-03-01T00:41:06;0.60;;;0.60;;
12005;SDS011;6062;47.294;12.182;2023-03-01T00:43:34;1.83;;;1.30;;
12005;SDS011;6062;47.294;12.182;2023-03-01T00:46:08;18.07;;;2.03;;
12005;SDS011;6062;47.294;12.182;2023-03-01T00:48:37;8.43;;;2.10;;
12005;SDS011;6062;47.294;12.182;2023-03-01T00:51:04;4.33;;;2.50;;
12005;SDS011;6062;47.294;12.182;2023-03-01T00:53:33;1.80;;;1.30;;
12005;SDS011;6062;47.294;12.182;2023-03-01T00:55:59;0.77;;;0.77;;
12005;SDS011;6062;47.294;12.182;2023-03-01T00:58:25;0.80;;;0.80;;
12005;SDS011;6062;47.294;12.182;2023-03-01T01:00:51;0.67;;;0.67;;
12005;SDS011;6062;47.294;12.182;2023-03-01T01:03:17;0.50;;;0.50;;
12005;SDS011;6062;47.294;12.182;2023-03-01T01:05:44;0.50;;;0.50;;
12005;SDS011;6062;47.294;12.182;2023-03-01T01:08:10;0.50;;;0.50;;
12005;SDS011;6062;47.294;12.182;2023-03-01T01:10:36;0.50;;;0.50;;
12005;SDS011;6062;47.294;12.182;2023-03-01T01:13:02;0.43;;;0.43;;
12005;SDS011;6062;47.294;12.182;2023-03-01T01:15:28;0.60;;;0.60;;
12005;SDS011;6062;47.294;12.182;2023-03-01T01:17:54;0.77;;;0.60;;
12005;SDS011;6062;47.294;12.182;2023-03-01T01:20:20;0.60;;;0.60;;
12005;SDS011;6062;47.294;12.182;2023-03-01T01:22:46;0.73;;;0.50;;
12005;SDS011;6062;47.294;12.182;2023-03-01T01:25:11;0.50;;;0.50;;
12005;SDS011;6062;47.294;12.182;2023-03-01T01:27:37;0.60;;;0.60;;
12005;SDS011;6062;47.294;12.182;2023-03-01T01:30:03;0.50;;;0.50;;
12005;SDS011;6062;47.294;12.182;2023-03-01T01:32:30;0.50;;;0.50;;
12005;SDS011;6062;47.294;12.182;2023-03-01T01:34:55;0.87;;;0.70;;
12005;SDS011;6062;47.294;12.182;2023-03-01T01:37:21;1.50;;;1.20;;
12005;SDS011;6062;47.294;12.182;2023-03-01T01:39:47;1.70;;;1.37;;
12005;SDS011;6062;47.294;12.182;2023-03-01T01:42:15;0.80;;;0.80;;
12005;SDS011;6062;47.294;12.182;2023-03-01T01:44:42;0.60;;;0.60;;
12005;SDS011;6062;47.294;12.182;2023-03-01T01:47:16;0.67;;;0.67;;
12005;SDS011;6062;47.294;12.182;2023-03-01T01:49:51;0.50;;;0.50;;
12005;SDS011;6062;47.294;12.182;2023-03-01T01:52:22;1.23;;;1.13;;
12005;SDS011;6062;47.294;12.182;2023-03-01T01:55:05;1.60;;;1.30;;
12005;SDS011;6062;47.294;12.182;2023-03-01T01:57:37;0.80;;;0.80;;
12005;SDS011;6062;47.294;12.182;2023-03-01T02:00:09;0.70;;;0.70;;
12005;SDS011;6062;47.294;12.182;2023-03-01T02:02:45;0.60;;;0.60;;
12005;SDS011;6062;47.294;12.182;2023-03-01T02:08:12;0.50;;;0.50;;
12005;SDS011;6062;47.294;12.182;2023-03-01T02:10:40;0.43;;;0.43;;
12005;SDS011;6062;47.294;12.182;2023-03-01T02:13:07;1.10;;;0.50;;
12005;SDS011;6062;47.294;12.182;2023-03-01T02:15:34;1.30;;;0.70;;
12005;SDS011;6062;47.294;12.182;2023-03-01T02:18:02;0.50;;;0.50;;
12005;SDS011;6062;47.294;12.182;2023-03-01T02:23:17;0.70;;;0.60;;
12005;SDS011;6062;47.294;12.182;2023-03-01T02:25:47;0.50;;;0.50;;
12005;SDS011;6062;47.294;12.182;2023-03-01T02:30:58;0.47;;;0.47;;
12005;SDS011;6062;47.294;12.182;2023-03-01T02:33:43;0.47;;;0.47;;
12005;SDS011;6062;47.294;12.182;2023-03-01T02:36:12;0.50;;;0.50;;
12005;SDS011;6062;47.294;12.182;2023-03-01T02:38:46;0.50;;;0.50;;
12005;SDS011;6062;47.294;12.182;2023-03-01T02:41:15;0.50;;;0.50;;
12005;SDS011;6062;47.294;12.182;2023-03-01T02:43:44;1.37;;;0.80;;
12005;SDS011;6062;47.294;12.182;2023-03-01T02:46:16;1.83;;;1.60;;
12005;SDS011;6062;47.294;12.182;2023-03-01T02:48:48;1.40;;;1.20;;
12005;SDS011;6062;47.294;12.182;2023-03-01T02:54:10;0.70;;;0.70;;
12005;SDS011;6062;47.294;12.182;2023-03-01T02:57:02;0.60;;;0.60;;
12005;SDS011;6062;47.294;12.182;2023-03-01T02:59:29;0.60;;;0.60;;
12005;SDS011;6062;47.294;12.182;2023-03-01T03:02:04;0.47;;;0.47;;
12005;SDS011;6062;47.294;12.182;2023-03-01T03:04:31;0.50;;;0.50;;
12005;SDS011;6062;47.294;12.182;2023-03-01T03:06:57;0.50;;;0.50;;
12005;SDS011;6062;47.294;12.182;2023-03-01T03:09:22;0.37;;;0.37;;
12005;SDS011;6062;47.294;12.182;2023-03-01T03:11:48;0.50;;;0.50;;
12005;SDS011;6062;47.294;12.182;2023-03-01T03:14:14;0.50;;;0.50;;
12005;SDS011;6062;47.294;12.182;2023-03-01T03:16:42;1.43;;;0.40;;
12005;SDS011;6062;47.294;12.182;2023-03-01T03:19:15;0.50;;;0.50;;
12005;SDS011;6062;47.294;12.182;2023-03-01T03:21:43;0.60;;;0.60;;
12005;SDS011;6062;47.294;12.182;2023-03-01T03:24:09;0.60;;;0.60;;
12005;SDS011;6062;47.294;12.182;2023-03-01T03:26:34;1.10;;;0.50;;
12005;SDS011;6062;47.294;12.182;2023-03-01T03:29:00;0.53;;;0.53;;
12005;SDS011;6062;47.294;12.182;2023-03-01T03:31:26;0.40;;;0.40;;
12005;SDS011;6062;47.294;12.182;2023-03-01T03:33:53;1.03;;;0.50;;
12005;SDS011;6062;47.294;12.182;2023-03-01T03:36:20;0.50;;;0.50;;
12005;SDS011;6062;47.294;12.182;2023-03-01T03:38:49;1.83;;;0.50;;
12005;SDS011;6062;47.294;12.182;2023-03-01T03:41:15;0.50;;;0.50;;
12005;SDS011;6062;47.294;12.182;2023-03-01T03:43:41;0.50;;;0.50;;
12005;SDS011;6062;47.294;12.182;2023-03-01T03:46:08;0.50;;;0.50;;
12005;SDS011;6062;47.294;12.182;2023-03-01T03:48:39;0.73;;;0.50;;
12005;SDS011;6062;47.294;12.182;2023-03-01T03:51:09;0.53;;;0.53;;
12005;SDS011;6062;47.294;12.182;2023-03-01T03:53:37;0.50;;;0.50;;
12005;SDS011;6062;47.294;12.182;2023-03-01T03:56:03;0.43;;;0.43;;
12005;SDS011;6062;47.294;12.182;2023-03-01T03:58:29;0.40;;;0.40;;
12005;SDS011;6062;47.294;12.182;2023-03-01T04:00:56;0.47;;;0.47;;
12005;SDS011;6062;47.294;12.182;2023-03-01T04:03:22;0.50;;;0.50;;
12005;SDS011;6062;47.294;12.182;2023-03-01T04:05:51;0.40;;;0.40;;
12005;SDS011;6062;47.294;12.182;2023-03-01T04:08:18;0.50;;;0.50;;
12005;SDS011;6062;47.294;12.182;2023-03-01T04:10:47;0.40;;;0.40;;
12005;SDS011;6062;47.294;12.182;2023-03-01T04:13:22;0.40;;;0.40;;
12005;SDS011;6062;47.294;12.182;2023-03-01T04:15:50;0.40;;;0.40;;
12005;SDS011;6062;47.294;12.182;2023-03-01T04:18:18;0.50;;;0.50;;
12005;SDS011;6062;47.294;12.182;2023-03-01T04:20:46;0.47;;;0.47;;
12005;SDS011;6062;47.294;12.182;2023-03-01T04:23:14;0.50;;;0.50;;
12005;SDS011;6062;47.294;12.182;2023-03-01T04:25:46;0.60;;;0.60;;
12005;SDS011;6062;47.294;12.182;2023-03-01T04:30:51;0.50;;;0.50;;
12005;SDS011;6062;47.294;12.182;2023-03-01T04:33:18;0.50;;;0.50;;
12005;SDS011;6062;47.294;12.182;2023-03-01T04:35:44;1.80;;;0.43;;
12005;SDS011;6062;47.294;12.182;2023-03-01T04:38:09;0.50;;;0.50;;
12005;SDS011;6062;47.294;12.182;2023-03-01T04:40:35;0.40;;;0.40;;
12005;SDS011;6062;47.294;12.182;2023-03-01T04:43:02;0.77;;;0.70;;
12005;SDS011;6062;47.294;12.182;2023-03-01T04:45:29;0.70;;;0.70;;
12005;SDS011;6062;47.294;12.182;2023-03-01T04:47:56;0.60;;;0.60;;
12005;SDS011;6062;47.294;12.182;2023-03-01T04:50:23;0.60;;;0.60;;
12005;SDS011;6062;47.294;12.182;2023-03-01T04:52:50;0.50;;;0.50;;
12005;SDS011;6062;47.294;12.182;2023-03-01T04:55:17;0.47;;;0.47;;
12005;SDS011;6062;47.294;12.182;2023-03-01T04:57:43;0.50;;;0.50;;
12005;SDS011;6062;47.294;12.182;2023-03-01T05:00:10;0.40;;;0.40;;
12005;SDS011;6062;47.294;12.182;2023-03-01T05:02:55;0.60;;;0.60;;
12005;SDS011;6062;47.294;12.182;2023-03-01T05:07:56;0.43;;;0.43;;
12005;SDS011;6062;47.294;12.182;2023-03-01T05:10:25;0.93;;;0.60;;
12005;SDS011;6062;47.294;12.182;2023-03-01T05:12:54;0.50;;;0.50;;
12005;SDS011;6062;47.294;12.182;2023-03-01T05:15:22;0.70;;;0.70;;
12005;SDS011;6062;47.294;12.182;2023-03-01T05:17:53;0.70;;;0.70;;
12005;SDS011;6062;47.294;12.182;2023-03-01T05:20:23;1.33;;;0.63;;
12005;SDS011;6062;47.294;12.182;2023-03-01T05:22:54;0.60;;;0.60;;
12005;SDS011;6062;47.294;12.182;2023-03-01T05:25:24;0.70;;;0.70;;
12005;SDS011;6062;47.294;12.182;2023-03-01T05:27:50;0.60;;;0.60;;
12005;SDS011;6062;47.294;12.182;2023-03-01T05:30:16;0.70;;;0.70;;
12005;SDS011;6062;47.294;12.182;2023-03-01T05:32:47;0.60;;;0.60;;
12005;SDS011;6062;47.294;12.182;2023-03-01T05:35:20;0.60;;;0.60;;
12005;SDS011;6062;47.294;12.182;2023-03-01T05:37:48;0.60;;;0.60;;
12005;SDS011;6062;47.294;12.182;2023-03-01T05:40:18;0.70;;;0.70;;
12005;SDS011;6062;47.294;12.182;2023-03-01T05:42:47;0.60;;;0.60;;
12005;SDS011;6062;47.294;12.182;2023-03-01T05:45:18;0.90;;;0.77;;
12005;SDS011;6062;47.294;12.182;2023-03-01T05:47:47;0.63;;;0.63;;
12005;SDS011;6062;47.294;12.182;2023-03-01T05:50:21;0.50;;;0.50;;
12005;SDS011;6062;47.294;12.182;2023-03-01T05:52:57;0.60;;;0.60;;
12005;SDS011;6062;47.294;12.182;2023-03-01T05:55:26;0.50;;;0.50;;
12005;SDS011;6062;47.294;12.182;2023-03-01T05:57:55;0.50;;;0.50;;
12005;SDS011;6062;47.294;12.182;2023-03-01T06:00:23;0.50;;;0.50;;
12005;SDS011;6062;47.294;12.182;2023-03-01T06:02:49;0.50;;;0.50;;
12005;SDS011;6062;47.294;12.182;2023-03-01T06:05:16;0.70;;;0.50;;
12005;SDS011;6062;47.294;12.182;2023-03-01T06:07:43;0.50;;;0.50;;
12005;SDS011;6062;47.294;12.182;2023-03-01T06:10:09;0.50;;;0.50;;
12005;SDS011;6062;47.294;12.182;2023-03-01T06:12:37;0.50;;;0.50;;
12005;SDS011;6062;47.294;12.182;2023-03-01T06:15:05;0.60;;;0.60;;
12005;SDS011;6062;47.294;12.182;2023-03-01T06:17:34;0.50;;;0.50;;
12005;SDS011;6062;47.294;12.182;2023-03-01T06:20:05;0.50;;;0.50;;
12005;SDS011;6062;47.294;12.182;2023-03-01T06:22:43;0.40;;;0.40;;
12005;SDS011;6062;47.294;12.182;2023-03-01T06:25:11;0.73;;;0.73;;
12005;SDS011;6062;47.294;12.182;2023-03-01T06:27:40;1.10;;;0.80;;
12005;SDS011;6062;47.294;12.182;2023-03-01T06:30:07;0.60;;;0.60;;
12005;SDS011;6062;47.294;12.182;2023-03-01T06:32:36;0.63;;;0.60;;
12005;SDS011;6062;47.294;12.182;2023-03-01T06:35:03;0.53;;;0.53;;
12005;SDS011;6062;47.294;12.182;2023-03-01T06:37:29;0.53;;;0.53;;
12005;SDS011;6062;47.294;12.182;2023-03-01T06:39:55;0.53;;;0.53;;
12005;SDS011;6062;47.294;12.182;2023-03-01T06:42:21;0.50;;;0.50;;
12005;SDS011;6062;47.294;12.182;2023-03-01T06:44:47;0.50;;;0.40;;
12005;SDS011;6062;47.294;12.182;2023-03-01T06:47:12;0.40;;;0.40;;
12005;SDS011;6062;47.294;12.182;2023-03-01T06:49:38;0.50;;;0.50;;
12005;SDS011;6062;47.294;12.182;2023-03-01T06:52:03;0.50;;;0.50;;
12005;SDS011;6062;47.294;12.182;2023-03-01T06:54:29;1.70;;;0.63;;
12005;SDS011;6062;47.294;12.182;2023-03-01T06:56:55;0.60;;;0.60;;
12005;SDS011;6062;47.294;12.182;2023-03-01T06:59:20;0.50;;;0.50;;
12005;SDS011;6062;47.294;12.182;2023-03-01T07:01:46;0.40;;;0.40;;
12005;SDS011;6062;47.294;12.182;2023-03-01T07:04:12;0.50;;;0.50;;
12005;SDS011;6062;47.294;12.182;2023-03-01T07:06:38;0.40;;;0.40;;
12005;SDS011;6062;47.294;12.182;2023-03-01T07:09:04;0.50;;;0.50;;
12005;SDS011;6062;47.294;12.182;2023-03-01T07:11:30;0.50;;;0.45;;
12005;SDS011;6062;47.294;12.182;2023-03-01T07:13:56;0.40;;;0.40;;
12005;SDS011;6062;47.294;12.182;2023-03-01T07:16:23;0.40;;;0.40;;
12005;SDS011;6062;47.294;12.182;2023-03-01T07:18:49;0.40;;;0.40;;
12005;SDS011;6062;47.294;12.182;2023-03-01T07:21:14;0.30;;;0.30;;
12005;SDS011;6062;47.294;12.182;2023-03-01T07:23:41;0.50;;;0.50;;
12005;SDS011;6062;47.294;12.182;2023-03-01T07:26:07;0.40;;;0.40;;
12005;SDS011;6062;47.294;12.182;2023-03-01T07:28:33;0.70;;;0.40;;
12005;SDS011;6062;47.294;12.182;2023-03-01T07:31:03;0.40;;;0.40;;
12005;SDS011;6062;47.294;12.182;2023-03-01T07:33:31;0.50;;;0.50;;
12005;SDS011;6062;47.294;12.182;2023-03-01T07:35:58;1.42;;;0.40;;
12005;SDS011;6062;47.294;12.182;2023-03-01T07:38:26;0.30;;;0.30;;
12005;SDS011;6062;47.294;12.182;2023-03-01T07:40:53;0.30;;;0.30;;
12005;SDS011;6062;47.294;12.182;2023-03-01T07:43:24;0.40;;;0.40;;
12005;SDS011;6062;47.294;12.182;2023-03-01T07:45:49;0.70;;;0.40;;
12005;SDS011;6062;47.294;12.182;2023-03-01T07:48:15;0.55;;;0.35;;
12005;SDS011;6062;47.294;12.182;2023-03-01T07:50:41;0.38;;;0.38;;
12005;SDS011;6062;47.294;12.182;2023-03-01T07:53:06;0.30;;;0.30;;
12005;SDS011;6062;47.294;12.182;2023-03-01T07:55:33;0.50;;;0.50;;
12005;SDS011;6062;47.294;12.182;2023-03-01T07:57:58;0.50;;;0.40;;
12005;SDS011;6062;47.294;12.182;2023-03-01T08:00:24;1.38;;;0.30;;
12005;SDS011;6062;47.294;12.182;2023-03-01T08:02:50;0.93;;;0.30;;
12005;SDS011;6062;47.294;12.182;2023-03-01T08:05:15;0.30;;;0.30;;
12005;SDS011;6062;47.294;12.182;2023-03-01T08:07:41;0.30;;;0.30;;
12005;SDS011;6062;47.294;12.182;2023-03-01T08:10:07;0.65;;;0.65;;
12005;SDS011;6062;47.294;12.182;2023-03-01T08:12:34;0.30;;;0.30;;
12005;SDS011;6062;47.294;12.182;2023-03-01T08:15:00;0.93;;;0.80;;
12005;SDS011;6062;47.294;12.182;2023-03-01T08:17:25;3.45;;;2.83;;
12005;SDS011;6062;47.294;12.182;2023-03-01T08:19:51;8.32;;;5.78;;
12005;SDS011;6062;47.294;12.182;2023-03-01T08:22:17;2.13;;;1.50;;
12005;SDS011;6062;47.294;12.182;2023-03-01T08:24:42;0.85;;;0.70;;
12005;SDS011;6062;47.294;12.182;2023-03-01T08:27:08;1.38;;;0.77;;
12005;SDS011;6062;47.294;12.182;2023-03-01T08:29:34;3.88;;;2.85;;
12005;SDS011;6062;47.294;12.182;2023-03-01T08:32:00;1.05;;;0.95;;
12005;SDS011;6062;47.294;12.182;2023-03-01T08:34:25;0.85;;;0.75;;
12005;SDS011;6062;47.294;12.182;2023-03-01T08:36:51;0.60;;;0.60;;
12005;SDS011;6062;47.294;12.182;2023-03-01T08:39:18;1.40;;;0.60;;
12005;SDS011;6062;47.294;12.182;2023-03-01T08:41:45;0.75;;;0.60;;
12005;SDS011;6062;47.294;12.182;2023-03-01T08:44:12;0.75;;;0.47;;
12005;SDS011;6062;47.294;12.182;2023-03-01T08:46:41;1.08;;;0.30;;
12005;SDS011;6062;47.294;12.182;2023-03-01T08:49:09;0.80;;;0.40;;
12005;SDS011;6062;47.294;12.182;2023-03-01T08:51:39;0.77;;;0.70;;
12005;SDS011;6062;47.294;12.182;2023-03-01T08:54:06;0.43;;;0.43;;
12005;SDS011;6062;47.294;12.182;2023-03-01T08:56:37;0.60;;;0.50;;
12005;SDS011;6062;47.294;12.182;2023-03-01T08:59:03;0.63;;;0.45;;
12005;SDS011;6062;47.294;12.182;2023-03-01T09:01:29;0.95;;;0.80;;
12005;SDS011;6062;47.294;12.182;2023-03-01T09:03:55;0.47;;;0.47;;
12005;SDS011;6062;47.294;12.182;2023-03-01T09:06:21;0.55;;;0.40;;
12005;SDS011;6062;47.294;12.182;2023-03-01T09:08:47;1.65;;;0.50;;
12005;SDS011;6062;47.294;12.182;2023-03-01T09:11:15;2.17;;;0.70;;
12005;SDS011;6062;47.294;12.182;2023-03-01T09:13:45;0.52;;;0.40;;
12005;SDS011;6062;47.294;12.182;2023-03-01T09:16:14;0.50;;;0.50;;
12005;SDS011;6062;47.294;12.182;2023-03-01T09:18:44;0.30;;;0.30;;
12005;SDS011;6062;47.294;12.182;2023-03-01T09:21:14;0.55;;;0.43;;
12005;SDS011;6062;47.294;12.182;2023-03-01T09:23:45;1.50;;;0.60;;
12005;SDS011;6062;47.294;12.182;2023-03-01T09:26:16;0.60;;;0.50;;
12005;SDS011;6062;47.294;12.182;2023-03-01T09:28:46;0.85;;;0.45;;
12005;SDS011;6062;47.294;12.182;2023-03-01T09:31:13;0.88;;;0.60;;
12005;SDS011;6062;47.294;12.182;2023-03-01T09:33:41;2.50;;;0.60;;
12005;SDS011;6062;47.294;12.182;2023-03-01T09:36:11;2.05;;;0.70;;
12005;SDS011;6062;47.294;12.182;2023-03-01T09:38:40;0.95;;;0.50;;
12005;SDS011;6062;47.294;12.182;2023-03-01T09:41:10;1.63;;;0.50;;
12005;SDS011;6062;47.294;12.182;2023-03-01T09:43:56;3.40;;;0.70;;
12005;SDS011;6062;47.294;12.182;2023-03-01T09:46:46;1.27;;;0.52;;
12005;SDS011;6062;47.294;12.182;2023-03-01T09:49:17;1.38;;;0.60;;
12005;SDS011;6062;47.294;12.182;2023-03-01T09:51:54;0.57;;;0.43;;
12005;SDS011;6062;47.294;12.182;2023-03-01T09:54:46;2.15;;;0.80;;
12005;SDS011;6062;47.294;12.182;2023-03-01T10:03:17;1.38;;;0.50;;
12005;SDS011;6062;47.294;12.182;2023-03-01T10:05:50;2.03;;;0.60;;
12005;SDS011;6062;47.294;12.182;2023-03-01T10:08:43;2.45;;;0.70;;
12005;SDS011;6062;47.294;12.182;2023-03-01T10:11:38;2.55;;;0.77;;
12005;SDS011;6062;47.294;12.182;2023-03-01T10:17:02;2.75;;;0.88;;
12005;SDS011;6062;47.294;12.182;2023-03-01T10:22:22;2.63;;;0.85;;
12005;SDS011;6062;47.294;12.182;2023-03-01T10:24:54;2.58;;;0.90;;
12005;SDS011;6062;47.294;12.182;2023-03-01T10:27:25;2.00;;;0.80;;
12005;SDS011;6062;47.294;12.182;2023-03-01T10:32:48;1.98;;;0.60;;
12005;SDS011;6062;47.294;12.182;2023-03-01T10:35:18;1.88;;;0.70;;
12005;SDS011;6062;47.294;12.182;2023-03-01T10:38:12;3.15;;;0.90;;
12005;SDS011;6062;47.294;12.182;2023-03-01T10:43:44;3.38;;;0.85;;
12005;SDS011;6062;47.294;12.182;2023-03-01T10:46:27;2.10;;;0.93;;
12005;SDS011;6062;47.294;12.182;2023-03-01T10:49:07;1.00;;;0.88;;
12005;SDS011;6062;47.294;12.182;2023-03-01T10:51:49;4.65;;;2.03;;
12005;SDS011;6062;47.294;12.182;2023-03-01T10:54:18;3.13;;;2.20;;
12005;SDS011;6062;47.294;12.182;2023-03-01T10:56:53;3.05;;;2.03;;
12005;SDS011;6062;47.294;12.182;2023-03-01T10:59:31;3.55;;;1.75;;
12005;SDS011;6062;47.294;12.182;2023-03-01T11:04:34;2.97;;;2.67;;
12005;SDS011;6062;47.294;12.182;2023-03-01T11:07:01;4.30;;;2.05;;
12005;SDS011;6062;47.294;12.182;2023-03-01T11:09:30;1.70;;;1.33;;
12005;SDS011;6062;47.294;12.182;2023-03-01T11:12:03;2.35;;;1.58;;
12005;SDS011;6062;47.294;12.182;2023-03-01T11:14:45;2.33;;;1.60;;
12005;SDS011;6062;47.294;12.182;2023-03-01T11:20:06;5.95;;;3.65;;
12005;SDS011;6062;47.294;12.182;2023-03-01T11:25:38;3.60;;;3.30;;
12005;SDS011;6062;47.294;12.182;2023-03-01T11:28:10;4.75;;;3.75;;
12005;SDS011;6062;47.294;12.182;2023-03-01T11:30:48;4.45;;;3.63;;
12005;SDS011;6062;47.294;12.182;2023-03-01T11:33:44;3.42;;;3.13;;
12005;SDS011;6062;47.294;12.182;2023-03-01T11:45:22;2.08;;;1.20;;
12005;SDS011;6062;47.294;12.182;2023-03-01T11:51:19;1.55;;;1.05;;
12005;SDS011;6062;47.294;12.182;2023-03-01T12:06:36;1.83;;;1.38;;
12005;SDS011;6062;47.294;12.182;2023-03-01T12:09:19;4.38;;;1.50;;
12005;SDS011;6062;47.294;12.182;2023-03-01T12:18:05;3.50;;;1.63;;
12005;SDS011;6062;47.294;12.182;2023-03-01T12:23:21;2.30;;;1.48;;
12005;SDS011;6062;47.294;12.182;2023-03-01T12:29:47;4.30;;;1.98;;
12005;SDS011;6062;47.294;12.182;2023-03-01T12:40:30;1.55;;;1.10;;
12005;SDS011;6062;47.294;12.182;2023-03-01T12:48:56;4.25;;;1.45;;
12005;SDS011;6062;47.294;12.182;2023-03-01T12:51:35;4.32;;;1.60;;
12005;SDS011;6062;47.294;12.182;2023-03-01T12:54:26;3.10;;;1.40;;
12005;SDS011;6062;47.294;12.182;2023-03-01T12:56:59;3.22;;;1.52;;
12005;SDS011;6062;47.294;12.182;2023-03-01T13:00:14;2.08;;;1.30;;
12005;SDS011;6062;47.294;12.182;2023-03-01T13:02:55;3.00;;;2.10;;
12005;SDS011;6062;47.294;12.182;2023-03-01T13:08:44;2.03;;;1.40;;
12005;SDS011;6062;47.294;12.182;2023-03-01T13:11:27;3.20;;;1.20;;
12005;SDS011;6062;47.294;12.182;2023-03-01T13:14:18;3.42;;;1.55;;
12005;SDS011;6062;47.294;12.182;2023-03-01T13:16:48;1.35;;;1.25;;
12005;SDS011;6062;47.294;12.182;2023-03-01T13:19:23;1.90;;;1.20;;
12005;SDS011;6062;47.294;12.182;2023-03-01T13:21:52;3.47;;;1.20;;
12005;SDS011;6062;47.294;12.182;2023-03-01T13:24:23;6.23;;;1.40;;
12005;SDS011;6062;47.294;12.182;2023-03-01T13:34:58;1.93;;;1.40;;
12005;SDS011;6062;47.294;12.182;2023-03-01T13:37:40;2.90;;;1.40;;
12005;SDS011;6062;47.294;12.182;2023-03-01T13:42:47;4.93;;;1.60;;
12005;SDS011;6062;47.294;12.182;2023-03-01T13:48:08;3.10;;;1.50;;
12005;SDS011;6062;47.294;12.182;2023-03-01T13:50:57;6.63;;;1.27;;
12005;SDS011;6062;47.294;12.182;2023-03-01T13:53:28;3.83;;;1.50;;
12005;SDS011;6062;47.294;12.182;2023-03-01T13:56:01;2.47;;;1.47;;
12005;SDS011;6062;47.294;12.182;2023-03-01T13:59:36;2.80;;;1.50;;
12005;SDS011;6062;47.294;12.182;2023-03-01T14:01:40;1.80;;;1.43;;
12005;SDS011;6062;47.294;12.182;2023-03-01T14:04:23;2.67;;;1.60;;
12005;SDS011;6062;47.294;12.182;2023-03-01T14:09:58;1.67;;;1.20;;
12005;SDS011;6062;47.294;12.182;2023-03-01T14:15:32;2.70;;;1.23;;
12005;SDS011;6062;47.294;12.182;2023-03-01T14:20:58;3.72;;;1.58;;
12005;SDS011;6062;47.294;12.182;2023-03-01T14:23:24;2.00;;;1.50;;
12005;SDS011;6062;47.294;12.182;2023-03-01T14:25:53;2.67;;;1.57;;
12005;SDS011;6062;47.294;12.182;2023-03-01T14:28:23;3.30;;;1.73;;
12005;SDS011;6062;47.294;12.182;2023-03-01T14:30:53;3.10;;;1.60;;
12005;SDS011;6062;47.294;12.182;2023-03-01T14:33:22;4.43;;;1.77;;
12005;SDS011;6062;47.294;12.182;2023-03-01T14:38:40;3.45;;;1.10;;
12005;SDS011;6062;47.294;12.182;2023-03-01T14:43:59;1.70;;;1.17;;
12005;SDS011;6062;47.294;12.182;2023-03-01T14:46:33;1.93;;;1.43;;
12005;SDS011;6062;47.294;12.182;2023-03-01T14:49:10;1.90;;;1.53;;
12005;SDS011;6062;47.294;12.182;2023-03-01T14:51:40;2.07;;;1.10;;
12005;SDS011;6062;47.294;12.182;2023-03-01T14:54:25;2.20;;;1.40;;
12005;SDS011;6062;47.294;12.182;2023-03-01T14:57:00;2.27;;;1.10;;
12005;SDS011;6062;47.294;12.182;2023-03-01T14:59:27;2.45;;;1.20;;
12005;SDS011;6062;47.294;12.182;2023-03-01T15:01:54;1.90;;;1.43;;
12005;SDS011;6062;47.294;12.182;2023-03-01T15:04:23;4.63;;;1.60;;
12005;SDS011;6062;47.294;12.182;2023-03-01T15:06:51;5.07;;;2.93;;
12005;SDS011;6062;47.294;12.182;2023-03-01T15:09:19;10.83;;;7.37;;
12005;SDS011;6062;47.294;12.182;2023-03-01T15:11:46;9.98;;;6.55;;
12005;SDS011;6062;47.294;12.182;2023-03-01T15:14:26;16.27;;;12.25;;
12005;SDS011;6062;47.294;12.182;2023-03-01T15:16:52;5.53;;;3.80;;
12005;SDS011;6062;47.294;12.182;2023-03-01T15:19:18;5.13;;;2.30;;
12005;SDS011;6062;47.294;12.182;2023-03-01T15:21:45;5.72;;;2.20;;
12005;SDS011;6062;47.294;12.182;2023-03-01T15:24:19;4.77;;;1.70;;
12005;SDS011;6062;47.294;12.182;2023-03-01T15:26:54;7.93;;;5.13;;
12005;SDS011;6062;47.294;12.182;2023-03-01T15:29:27;5.37;;;2.40;;
12005;SDS011;6062;47.294;12.182;2023-03-01T15:34:31;9.20;;;5.60;;
12005;SDS011;6062;47.294;12.182;2023-03-01T15:37:02;5.53;;;2.97;;
12005;SDS011;6062;47.294;12.182;2023-03-01T15:42:58;3.83;;;2.47;;
12005;SDS011;6062;47.294;12.182;2023-03-01T15:45:57;4.30;;;2.67;;
12005;SDS011;6062;47.294;12.182;2023-03-01T15:48:23;4.72;;;3.10;;
12005;SDS011;6062;47.294;12.182;2023-03-01T15:50:54;4.57;;;2.67;;
12005;SDS011;6062;47.294;12.182;2023-03-01T15:53:23;7.15;;;5.20;;
12005;SDS011;6062;47.294;12.182;2023-03-01T15:55:51;4.55;;;3.28;;
12005;SDS011;6062;47.294;12.182;2023-03-01T15:58:21;3.90;;;2.50;;
12005;SDS011;6062;47.294;12.182;2023-03-01T16:00:50;3.15;;;1.95;;
12005;SDS011;6062;47.294;12.182;2023-03-01T16:03:21;3.10;;;1.53;;
12005;SDS011;6062;47.294;12.182;2023-03-01T16:05:48;3.47;;;1.70;;
12005;SDS011;6062;47.294;12.182;2023-03-01T16:08:15;2.33;;;1.60;;
12005;SDS011;6062;47.294;12.182;2023-03-01T16:10:42;5.97;;;1.90;;
12005;SDS011;6062;47.294;12.182;2023-03-01T16:13:09;4.37;;;1.90;;
12005;SDS011;6062;47.294;12.182;2023-03-01T16:15:39;4.17;;;1.40;;
12005;SDS011;6062;47.294;12.182;2023-03-01T16:18:05;4.40;;;1.50;;
12005;SDS011;6062;47.294;12.182;2023-03-01T16:20:35;2.13;;;1.47;;
12005;SDS011;6062;47.294;12.182;2023-03-01T16:23:01;2.30;;;1.70;;
12005;SDS011;6062;47.294;12.182;2023-03-01T16:25:30;4.40;;;1.73;;
12005;SDS011;6062;47.294;12.182;2023-03-01T16:27:57;4.70;;;2.90;;
12005;SDS011;6062;47.294;12.182;2023-03-01T16:30:25;22.50;;;12.57;;
12005;SDS011;6062;47.294;12.182;2023-03-01T16:32:52;19.27;;;11.93;;
12005;SDS011;6062;47.294;12.182;2023-03-01T16:35:20;95.63;;;49.40;;
12005;SDS011;6062;47.294;12.182;2023-03-01T16:37:48;43.63;;;25.57;;
12005;SDS011;6062;47.294;12.182;2023-03-01T16:40:18;34.23;;;21.00;;
12005;SDS011;6062;47.294;12.182;2023-03-01T16:42:51;27.53;;;16.50;;
12005;SDS011;6062;47.294;12.182;2023-03-01T16:45:18;40.27;;;20.93;;
12005;SDS011;6062;47.294;12.182;2023-03-01T16:47:44;22.40;;;11.80;;
12005;SDS011;6062;47.294;12.182;2023-03-01T16:50:10;12.13;;;6.00;;
12005;SDS011;6062;47.294;12.182;2023-03-01T16:52:36;4.43;;;2.87;;
12005;SDS011;6062;47.294;12.182;2023-03-01T16:55:03;4.60;;;2.10;;
12005;SDS011;6062;47.294;12.182;2023-03-01T16:57:33;3.47;;;1.70;;
12005;SDS011;6062;47.294;12.182;2023-03-01T16:59:59;4.97;;;1.80;;
12005;SDS011;6062;47.294;12.182;2023-03-01T17:02:25;3.97;;;1.60;;
12005;SDS011;6062;47.294;12.182;2023-03-01T17:04:54;3.83;;;1.70;;
12005;SDS011;6062;47.294;12.182;2023-03-01T17:07:20;3.00;;;1.97;;
12005;SDS011;6062;47.294;12.182;2023-03-01T17:09:47;5.07;;;2.00;;
12005;SDS011;6062;47.294;12.182;2023-03-01T17:12:13;6.50;;;4.33;;
12005;SDS011;6062;47.294;12.182;2023-03-01T17:14:40;6.17;;;2.50;;
12005;SDS011;6062;47.294;12.182;2023-03-01T17:17:07;5.80;;;1.63;;